Time;durP1;ratioP1;P1;durP2;ratioP2;P2;SDS_P1;SDS_P2;PMS_P1;PMS_P2;Temp;Humidity;BMP_temperature;BMP_pressure;BME280_temperature;BME280_humidity;BME280_pressure;Samples;Min_cycle;Max_cycle;Signal;HPM_P1;HPM_P2
2022/03/12 00:00:11;;;;;;;9.80;5.07;;;6.70;48.20;;;;;;5087517;27;20039;-80
2022/03/12 00:02:36;;;;;;;9.32;4.43;;;6.80;47.50;;;;;;5122343;27;20062;-80
2022/03/12 00:05:07;;;;;;;10.18;5.05;;;6.80;47.50;;;;;;5108105;27;20498;-80
2022/03/12 00:07:40;;;;;;;8.93;4.15;;;6.80;47.60;;;;;;5120161;27;20552;-80
2022/03/12 00:10:07;;;;;;;13.80;4.75;;;6.80;46.90;;;;;;5116767;27;20035;-79
2022/03/12 00:12:36;;;;;;;5.47;2.83;;;6.90;47.20;;;;;;5107864;27;20050;-79
2022/03/12 00:15:09;;;;;;;8.57;4.63;;;6.90;46.40;;;;;;5099708;27;20039;-79
2022/03/12 00:17:41;;;;;;;13.85;4.88;;;6.90;46.80;;;;;;5110873;27;20051;-79
2022/03/12 00:20:12;;;;;;;9.70;5.35;;;6.90;46.80;;;;;;5123293;27;20039;-79
2022/03/12 00:22:47;;;;;;;11.20;4.97;;;6.90;47.10;;;;;;5112637;27;20125;-79
2022/03/12 00:25:18;;;;;;;8.68;4.90;;;6.90;46.40;;;;;;5088377;27;20046;-79
2022/03/12 00:27:45;;;;;;;8.90;4.60;;;6.90;47.00;;;;;;5101738;27;20039;-79
2022/03/12 00:30:16;;;;;;;9.60;5.47;;;6.90;46.70;;;;;;5099707;27;20077;-79
2022/03/12 00:32:43;;;;;;;10.67;5.47;;;6.90;46.80;;;;;;5116588;27;20551;-80
2022/03/12 00:35:10;;;;;;;10.60;4.95;;;6.90;46.80;;;;;;5116259;27;20329;-80
2022/03/12 00:37:37;;;;;;;9.77;4.63;;;6.90;46.50;;;;;;5118220;27;20071;-80
2022/03/12 00:40:05;;;;;;;5.80;2.53;;;6.90;46.10;;;;;;5082905;27;20466;-80
2022/03/12 00:42:31;;;;;;;9.27;5.28;;;7.00;46.10;;;;;;5099021;27;20035;-80
2022/03/12 00:44:58;;;;;;;8.35;3.30;;;7.00;46.60;;;;;;5107300;27;20039;-80
2022/03/12 00:47:24;;;;;;;5.72;2.65;;;6.90;46.40;;;;;;5087282;27;20067;-80
2022/03/12 00:49:50;;;;;;;10.13;5.05;;;6.90;46.40;;;;;;5116281;27;20401;-80
2022/03/12 00:52:17;;;;;;;8.30;3.90;;;7.50;47.10;;;;;;5102367;27;20035;-80
2022/03/12 00:54:43;;;;;;;6.82;3.15;;;7.00;47.00;;;;;;5119870;27;20053;-80
2022/03/12 00:57:11;;;;;;;10.77;5.63;;;6.90;46.90;;;;;;5102756;27;20047;-80
2022/03/12 00:59:44;;;;;;;8.13;3.85;;;6.90;47.50;;;;;;5115835;27;20494;-80
2022/03/12 01:02:13;;;;;;;11.85;5.47;;;6.80;47.00;;;;;;5118523;27;20520;-80
2022/03/12 01:04:39;;;;;;;7.72;3.55;;;6.80;47.70;;;;;;5116215;27;20457;-80
2022/03/12 01:07:05;;;;;;;11.05;6.25;;;6.80;47.30;;;;;;5117019;27;20054;-80
2022/03/12 01:09:31;;;;;;;11.38;5.05;;;6.70;47.90;;;;;;5081226;27;20050;-80
2022/03/12 01:11:58;;;;;;;10.23;5.35;;;6.80;47.40;;;;;;5101382;27;20419;-80
2022/03/12 01:14:24;;;;;;;10.45;5.55;;;6.70;47.80;;;;;;5115423;27;20050;-80
2022/03/12 01:16:50;;;;;;;10.38;4.95;;;6.70;48.10;;;;;;5115111;27;20043;-80
2022/03/12 01:19:15;;;;;;;10.45;5.78;;;6.70;47.30;;;;;;5119494;27;20034;-80
2022/03/12 01:21:42;;;;;;;7.28;4.03;;;6.70;47.50;;;;;;5126915;27;20054;-79
2022/03/12 01:24:08;;;;;;;10.10;5.57;;;7.00;47.40;;;;;;5115730;27;20542;-79
2022/03/12 01:26:40;;;;;;;10.80;5.55;;;6.70;47.30;;;;;;5104688;27;20039;-79
2022/03/12 01:29:07;;;;;;;12.20;5.70;;;6.70;47.50;;;;;;5115208;27;20077;-79
2022/03/12 01:31:34;;;;;;;9.48;4.70;;;6.70;48.30;;;;;;5119121;27;20145;-80
2022/03/12 01:34:00;;;;;;;9.35;4.93;;;6.70;47.30;;;;;;5082966;27;20047;-80
2022/03/12 01:36:26;;;;;;;10.18;5.07;;;6.70;47.20;;;;;;5100335;27;20512;-79
2022/03/12 01:38:54;;;;;;;10.27;4.88;;;6.70;47.60;;;;;;5104746;27;20125;-79
2022/03/12 01:41:32;;;;;;;7.68;3.70;;;6.70;47.90;;;;;;5102463;27;20054;-79
2022/03/12 01:44:00;;;;;;;10.57;5.32;;;6.80;46.90;;;;;;5106773;27;20071;-79
2022/03/12 01:46:33;;;;;;;10.93;5.32;;;6.80;47.30;;;;;;5101774;27;20116;-79
2022/03/12 01:48:59;;;;;;;8.63;5.45;;;6.90;47.60;;;;;;5101719;27;20049;-79
2022/03/12 01:51:29;;;;;;;9.95;4.93;;;6.70;47.80;;;;;;5105218;27;20039;-79
2022/03/12 01:53:56;;;;;;;8.13;3.85;;;6.70;47.10;;;;;;5098003;27;20065;-79
2022/03/12 01:56:27;;;;;;;14.02;5.28;;;6.80;47.40;;;;;;5122635;27;20051;-79
2022/03/12 01:58:53;;;;;;;11.00;5.50;;;6.70;47.40;;;;;;5121139;27;20043;-79
2022/03/12 02:01:20;;;;;;;11.13;6.25;;;6.80;47.70;;;;;;5114701;27;20121;-79
2022/03/12 02:03:46;;;;;;;11.40;6.10;;;6.70;48.10;;;;;;5092486;27;20116;-79
2022/03/12 02:06:19;;;;;;;8.48;4.70;;;6.70;48.00;;;;;;5114195;27;20111;-79
2022/03/12 02:08:49;;;;;;;13.13;6.40;;;6.70;48.00;;;;;;5116156;27;20043;-79
2022/03/12 02:11:25;;;;;;;9.57;5.53;;;6.60;48.30;;;;;;5114088;27;20043;-79
2022/03/12 02:14:08;;;;;;;9.45;5.75;;;6.60;48.10;;;;;;5118882;27;20377;-79
2022/03/12 02:16:35;;;;;;;8.10;4.40;;;6.60;48.20;;;;;;5097517;27;20426;-79
2022/03/12 02:19:01;;;;;;;8.27;4.80;;;6.60;47.90;;;;;;5118184;28;20039;-79
2022/03/12 02:21:41;;;;;;;10.63;5.72;;;6.90;48.20;;;;;;5105372;27;20070;-79
2022/03/12 02:24:12;;;;;;;9.40;5.80;;;6.60;48.90;;;;;;5124441;27;20039;-79
2022/03/12 02:26:42;;;;;;;10.02;4.63;;;6.50;48.50;;;;;;5116002;27;20043;-79
2022/03/12 02:29:12;;;;;;;8.75;4.78;;;6.60;48.80;;;;;;5099275;27;20054;-79
2022/03/12 02:31:40;;;;;;;9.57;5.93;;;6.60;48.70;;;;;;5114053;27;20127;-79
2022/03/12 02:34:10;;;;;;;12.57;5.80;;;6.50;49.10;;;;;;5107539;27;20042;-79
2022/03/12 02:36:37;;;;;;;14.80;6.10;;;6.50;49.10;;;;;;5082024;28;20046;-79
2022/03/12 02:39:04;;;;;;;12.27;5.60;;;6.50;48.90;;;;;;5120169;27;20440;-79
2022/03/12 02:41:31;;;;;;;12.43;6.13;;;6.50;48.60;;;;;;5097206;27;20489;-79
2022/03/12 02:43:57;;;;;;;10.25;5.25;;;6.40;48.80;;;;;;5096869;28;20127;-80
2022/03/12 02:46:27;;;;;;;9.02;4.78;;;6.40;49.50;;;;;;5114299;28;20435;-80
2022/03/12 02:48:53;;;;;;;11.40;5.20;;;6.40;48.90;;;;;;5115589;28;20039;-80
2022/03/12 02:51:22;;;;;;;9.57;4.90;;;6.40;49.10;;;;;;5097016;28;20043;-80
2022/03/12 02:53:56;;;;;;;10.95;6.40;;;6.40;48.80;;;;;;5114472;27;20035;-80
2022/03/12 02:56:23;;;;;;;8.82;4.93;;;6.40;49.10;;;;;;5101456;28;20050;-80
2022/03/12 02:58:50;;;;;;;10.13;5.63;;;6.40;48.80;;;;;;5082840;28;20078;-80
2022/03/12 03:01:16;;;;;;;10.65;6.38;;;6.40;49.40;;;;;;5114170;27;20043;-80
2022/03/12 03:03:43;;;;;;;8.07;4.07;;;6.30;49.10;;;;;;5116749;27;20462;-79
2022/03/12 03:06:09;;;;;;;9.75;5.95;;;6.40;48.90;;;;;;5106844;27;20055;-79
2022/03/12 03:08:37;;;;;;;10.25;6.03;;;6.40;48.80;;;;;;5099961;27;20053;-79
2022/03/12 03:11:17;;;;;;;10.02;5.68;;;6.40;48.90;;;;;;5101380;27;20039;-79
2022/03/12 03:13:44;;;;;;;10.60;5.10;;;6.40;48.70;;;;;;5080484;27;20050;-79
2022/03/12 03:16:24;;;;;;;9.05;5.20;;;6.40;49.10;;;;;;5099081;27;20039;-79
2022/03/12 03:18:53;;;;;;;9.10;5.28;;;6.40;48.80;;;;;;5114113;28;20044;-79
2022/03/12 03:21:28;;;;;;;10.48;6.00;;;6.40;48.50;;;;;;5125202;27;20384;-79
2022/03/12 03:23:54;;;;;;;9.70;5.00;;;6.40;49.20;;;;;;5099316;27;20370;-79
2022/03/12 03:26:40;;;;;;;7.20;3.80;;;6.40;49.20;;;;;;5097100;27;20378;-79
2022/03/12 03:29:07;;;;;;;7.72;4.05;;;6.40;48.70;;;;;;5091535;27;20058;-79
2022/03/12 03:31:33;;;;;;;11.73;6.40;;;6.30;48.40;;;;;;5120244;27;20046;-79
2022/03/12 03:33:59;;;;;;;8.88;4.80;;;6.90;50.10;;;;;;5108804;27;20039;-80
2022/03/12 03:36:25;;;;;;;10.93;5.60;;;6.30;49.60;;;;;;5104059;27;20408;-80
2022/03/12 03:38:50;;;;;;;9.00;4.63;;;6.20;49.80;;;;;;5126286;27;20043;-80
2022/03/12 03:41:17;;;;;;;10.85;4.90;;;6.20;48.90;;;;;;5103541;27;20042;-80
2022/03/12 03:43:49;;;;;;;8.27;4.63;;;6.30;49.40;;;;;;5084711;27;20071;-80
2022/03/12 03:46:18;;;;;;;10.48;4.93;;;6.30;48.90;;;;;;5107945;27;20046;-80
2022/03/12 03:48:46;;;;;;;7.15;3.38;;;6.40;48.40;;;;;;5117268;27;20386;-80
2022/03/12 03:51:13;;;;;;;9.18;5.13;;;6.30;48.20;;;;;;5121856;27;20490;-79
2022/03/12 03:53:39;;;;;;;9.27;4.95;;;6.30;49.30;;;;;;5121219;27;20644;-79
2022/03/12 03:56:04;;;;;;;11.60;5.68;;;6.20;49.60;;;;;;5104040;27;20096;-79
2022/03/12 03:58:32;;;;;;;9.85;5.03;;;6.40;49.80;;;;;;5104431;27;20122;-79
2022/03/12 04:01:10;;;;;;;9.88;5.00;;;6.10;49.30;;;;;;5124369;27;20439;-79
2022/03/12 04:03:37;;;;;;;7.40;3.95;;;6.10;49.40;;;;;;5125252;27;20111;-79
2022/03/12 04:06:04;;;;;;;9.82;5.55;;;6.00;49.70;;;;;;5099742;27;20112;-79
2022/03/12 04:08:31;;;;;;;7.93;4.80;;;6.10;49.60;;;;;;5120637;27;20489;-79
2022/03/12 04:10:57;;;;;;;10.73;4.95;;;6.00;49.40;;;;;;5111731;27;20539;-79
2022/03/12 04:13:23;;;;;;;9.80;4.40;;;6.00;50.00;;;;;;5099583;27;20189;-79
2022/03/12 04:15:51;;;;;;;9.15;5.25;;;6.20;49.70;;;;;;5104006;27;20043;-80
2022/03/12 04:18:21;;;;;;;9.82;5.55;;;5.90;49.50;;;;;;5085824;27;20055;-79
2022/03/12 04:20:48;;;;;;;9.63;5.22;;;6.00;49.50;;;;;;5107061;27;20038;-79
2022/03/12 04:23:24;;;;;;;8.57;4.53;;;6.00;50.00;;;;;;5103814;27;20047;-79
2022/03/12 04:25:52;;;;;;;7.55;3.67;;;5.90;49.40;;;;;;5086742;27;20076;-79
2022/03/12 04:28:23;;;;;;;9.13;4.13;;;5.90;49.50;;;;;;5128399;27;20035;-79
2022/03/12 04:30:50;;;;;;;10.30;5.65;;;5.90;49.90;;;;;;5108131;27;20117;-79
2022/03/12 04:33:19;;;;;;;8.18;4.40;;;5.90;50.10;;;;;;5103708;27;20031;-80
2022/03/12 04:35:46;;;;;;;9.65;5.55;;;5.90;49.80;;;;;;5116105;27;20438;-79
2022/03/12 04:38:13;;;;;;;9.13;5.05;;;5.80;50.10;;;;;;5102530;27;20133;-79
2022/03/12 04:40:41;;;;;;;13.85;4.80;;;5.70;50.40;;;;;;5122184;27;20050;-79
2022/03/12 04:43:09;;;;;;;11.60;5.68;;;5.70;50.00;;;;;;5122408;27;20073;-79
2022/03/12 04:45:36;;;;;;;9.77;5.60;;;5.70;50.20;;;;;;5099420;27;20047;-79
2022/03/12 04:48:03;;;;;;;10.13;5.53;;;5.60;50.30;;;;;;5118713;27;20046;-79
2022/03/12 04:50:30;;;;;;;8.60;5.55;;;5.60;50.40;;;;;;5099584;27;20058;-79
2022/03/12 04:53:00;;;;;;;9.25;5.15;;;5.60;51.30;;;;;;5127523;27;20122;-79
2022/03/12 04:55:27;;;;;;;9.93;4.65;;;5.60;50.30;;;;;;5099380;27;20042;-79
2022/03/12 04:57:54;;;;;;;10.07;5.55;;;5.60;50.70;;;;;;5106513;27;20047;-79
2022/03/12 05:00:27;;;;;;;11.45;5.32;;;5.50;51.10;;;;;;5107780;27;20035;-79
2022/03/12 05:02:55;;;;;;;9.82;4.70;;;5.50;50.90;;;;;;5098925;27;20135;-79
2022/03/12 05:05:21;;;;;;;10.57;5.55;;;6.00;50.80;;;;;;5098449;27;20505;-79
2022/03/12 05:07:48;;;;;;;9.55;5.18;;;5.50;52.00;;;;;;5103121;27;20039;-79
2022/03/12 05:10:18;;;;;;;10.07;5.95;;;5.40;51.70;;;;;;5112596;27;20043;-79
2022/03/12 05:12:48;;;;;;;8.77;5.38;;;5.30;51.30;;;;;;5112007;27;20119;-79
2022/03/12 05:15:15;;;;;;;10.60;5.40;;;5.30;51.70;;;;;;5098297;27;20043;-79
2022/03/12 05:17:43;;;;;;;9.77;5.00;;;5.30;51.80;;;;;;5098322;27;20386;-79
2022/03/12 05:20:11;;;;;;;8.85;5.50;;;5.20;51.70;;;;;;5115077;27;20122;-80
2022/03/12 05:22:36;;;;;;;10.10;5.30;;;5.10;52.40;;;;;;5119223;27;20100;-80
2022/03/12 05:25:03;;;;;;;8.77;5.30;;;5.10;52.30;;;;;;5098149;27;20039;-80
2022/03/12 05:27:29;;;;;;;10.43;5.95;;;5.10;52.60;;;;;;5119187;27;20539;-80
2022/03/12 05:29:56;;;;;;;9.90;5.97;;;5.40;52.80;;;;;;5115869;27;20039;-79
2022/03/12 05:32:21;;;;;;;10.32;5.78;;;5.10;52.30;;;;;;5098088;27;20070;-79
2022/03/12 05:34:47;;;;;;;9.45;5.40;;;5.00;52.70;;;;;;5115206;27;20195;-79
2022/03/12 05:37:13;;;;;;;10.88;5.60;;;5.00;53.10;;;;;;5078319;27;20398;-79
2022/03/12 05:39:39;;;;;;;9.45;5.30;;;5.00;52.60;;;;;;5119453;27;20720;-80
2022/03/12 05:42:05;;;;;;;11.00;6.00;;;4.90;52.90;;;;;;5085740;27;20035;-79
2022/03/12 05:44:38;;;;;;;11.25;5.53;;;4.90;52.60;;;;;;5098149;27;20050;-79
2022/03/12 05:47:09;;;;;;;10.15;5.10;;;4.90;52.80;;;;;;5117278;27;20070;-79
2022/03/12 05:49:35;;;;;;;11.38;5.15;;;4.90;52.70;;;;;;5097921;27;20069;-79
2022/03/12 05:52:00;;;;;;;9.77;5.45;;;5.00;52.30;;;;;;5121709;27;20072;-79
2022/03/12 05:54:27;;;;;;;10.68;5.30;;;4.90;52.80;;;;;;5097891;27;20043;-79
2022/03/12 05:56:52;;;;;;;9.75;5.72;;;4.90;52.70;;;;;;5114091;27;20035;-80
2022/03/12 05:59:18;;;;;;;9.75;5.43;;;4.90;52.70;;;;;;5118489;27;20043;-79
2022/03/12 06:01:44;;;;;;;9.27;5.18;;;4.80;53.10;;;;;;5083425;27;20046;-79
2022/03/12 06:04:10;;;;;;;8.68;4.95;;;4.80;53.20;;;;;;5105582;27;20121;-79
2022/03/12 06:06:37;;;;;;;8.73;5.38;;;4.80;53.50;;;;;;5096670;27;20079;-79
2022/03/12 06:09:05;;;;;;;10.18;4.90;;;4.80;53.60;;;;;;5095185;27;20498;-80
2022/03/12 06:11:32;;;;;;;11.93;5.65;;;4.80;53.40;;;;;;5085006;27;20096;-80
2022/03/12 06:13:59;;;;;;;9.13;5.07;;;4.80;53.80;;;;;;5114705;27;20035;-79
2022/03/12 06:16:26;;;;;;;9.68;5.85;;;4.90;53.70;;;;;;5114375;27;20090;-79
2022/03/12 06:18:53;;;;;;;8.80;5.13;;;4.90;53.50;;;;;;5114259;27;20389;-79
2022/03/12 06:21:19;;;;;;;10.80;5.57;;;4.90;53.90;;;;;;5103362;27;20070;-79
2022/03/12 06:23:45;;;;;;;9.18;5.50;;;5.00;53.40;;;;;;5099265;27;20498;-79
2022/03/12 06:26:14;;;;;;;9.88;5.50;;;5.00;54.10;;;;;;5114208;27;20039;-79
2022/03/12 06:28:41;;;;;;;9.38;5.45;;;5.80;54.40;;;;;;5084085;27;20035;-79
2022/03/12 06:31:08;;;;;;;10.15;4.85;;;5.10;54.30;;;;;;5090074;28;20118;-79
2022/03/12 06:33:34;;;;;;;10.85;5.38;;;5.10;54.60;;;;;;5100856;27;20034;-79
2022/03/12 06:36:03;;;;;;;10.93;5.95;;;5.10;53.70;;;;;;5097010;28;20043;-79
2022/03/12 06:38:34;;;;;;;10.27;5.28;;;5.80;54.80;;;;;;5096136;28;20035;-79
2022/03/12 06:41:00;;;;;;;10.10;4.97;;;5.20;53.90;;;;;;5101251;27;20046;-79
2022/03/12 06:43:28;;;;;;;9.60;5.70;;;5.10;53.70;;;;;;5080114;27;20110;-79
2022/03/12 06:45:58;;;;;;;10.27;5.55;;;5.20;54.30;;;;;;5100555;27;20718;-79
2022/03/12 06:48:24;;;;;;;9.95;5.85;;;5.20;54.30;;;;;;5119774;27;20074;-79
2022/03/12 06:50:50;;;;;;;8.50;4.93;;;5.10;54.40;;;;;;5114157;27;20042;-79
2022/03/12 06:53:16;;;;;;;8.30;5.25;;;5.20;53.90;;;;;;5094453;27;20035;-79
2022/03/12 06:55:43;;;;;;;10.60;4.95;;;5.30;54.00;;;;;;5114369;27;20039;-79
2022/03/12 06:58:09;;;;;;;10.77;5.65;;;5.50;53.40;;;;;;5087270;27;20497;-79
2022/03/12 07:00:35;;;;;;;9.07;5.50;;;5.40;54.00;;;;;;5117974;27;20058;-80
2022/03/12 07:03:01;;;;;;;10.68;5.38;;;5.40;53.60;;;;;;5117768;27;20043;-80
2022/03/12 07:05:28;;;;;;;10.65;5.50;;;5.60;54.40;;;;;;5120797;27;20058;-79
2022/03/12 07:07:55;;;;;;;10.75;5.63;;;6.10;54.00;;;;;;5101909;27;20031;-79
2022/03/12 07:10:22;;;;;;;9.57;5.22;;;5.80;53.70;;;;;;5104162;27;20035;-79
2022/03/12 07:12:48;;;;;;;8.82;4.65;;;5.80;53.60;;;;;;5101101;27;20440;-80
2022/03/12 07:15:16;;;;;;;8.07;4.57;;;5.90;53.10;;;;;;5102296;27;20066;-80
2022/03/12 07:17:42;;;;;;;9.13;3.47;;;6.10;52.80;;;;;;5103137;27;20031;-80
2022/03/12 07:20:09;;;;;;;8.93;4.55;;;6.20;52.30;;;;;;5100825;27;20490;-80
2022/03/12 07:22:35;;;;;;;12.20;4.45;;;6.20;52.50;;;;;;5105676;27;20081;-82
2022/03/12 07:25:01;;;;;;;10.00;4.55;;;6.50;51.80;;;;;;5118505;27;20067;-82
2022/03/12 07:27:27;;;;;;;13.50;5.57;;;6.40;52.00;;;;;;5119084;27;20065;-82
2022/03/12 07:29:53;;;;;;;9.93;5.63;;;6.50;52.60;;;;;;5100573;27;20092;-82
2022/03/12 07:32:20;;;;;;;8.95;4.35;;;6.60;51.90;;;;;;5118388;27;20074;-81
2022/03/12 07:34:47;;;;;;;6.47;2.88;;;6.60;51.80;;;;;;5120807;27;20046;-82
2022/03/12 07:37:13;;;;;;;7.25;3.50;;;6.70;51.50;;;;;;5098949;27;20727;-81
2022/03/12 07:39:39;;;;;;;6.95;4.18;;;6.70;51.90;;;;;;5119372;27;20037;-82
2022/03/12 07:42:06;;;;;;;7.72;3.72;;;6.70;51.80;;;;;;5083601;27;20066;-82
2022/03/12 07:44:32;;;;;;;7.07;3.53;;;6.70;52.10;;;;;;5103363;27;20043;-83
2022/03/12 07:46:59;;;;;;;10.07;4.90;;;6.70;52.30;;;;;;5120900;27;20042;-82
2022/03/12 07:49:25;;;;;;;8.70;4.70;;;6.70;52.90;;;;;;5106794;27;20150;-82
2022/03/12 07:51:52;;;;;;;8.25;4.35;;;6.70;53.10;;;;;;5100111;27;20064;-82
2022/03/12 07:54:18;;;;;;;10.70;5.45;;;6.70;52.50;;;;;;5094663;27;20043;-82
2022/03/12 07:56:44;;;;;;;10.05;4.78;;;6.90;52.80;;;;;;5118100;27;20062;-81
2022/03/12 07:59:10;;;;;;;7.40;3.53;;;7.00;52.70;;;;;;5101926;27;20401;-81
2022/03/12 08:01:36;;;;;;;14.52;3.75;;;7.30;52.20;;;;;;5118918;27;20114;-80
2022/03/12 08:04:03;;;;;;;8.73;4.15;;;7.40;51.90;;;;;;5099559;27;20039;-81
2022/03/12 08:06:30;;;;;;;10.98;5.43;;;7.60;51.70;;;;;;5116679;27;20051;-82
2022/03/12 08:08:56;;;;;;;6.32;2.97;;;7.70;51.60;;;;;;5092467;27;20566;-81
2022/03/12 08:11:25;;;;;;;7.97;4.38;;;7.80;50.50;;;;;;5115866;27;20040;-80
2022/03/12 08:14:04;;;;;;;7.20;3.88;;;7.80;50.40;;;;;;5090626;27;20073;-80
2022/03/12 08:16:33;;;;;;;6.15;2.72;;;8.00;51.40;;;;;;5115499;27;20031;-80
2022/03/12 08:19:00;;;;;;;9.13;5.68;;;8.10;51.10;;;;;;5116588;27;20031;-83
2022/03/12 08:21:26;;;;;;;7.57;3.67;;;8.30;50.40;;;;;;5103660;27;20477;-81
2022/03/12 08:23:52;;;;;;;7.93;4.30;;;8.40;49.40;;;;;;5102162;27;20043;-81
2022/03/12 08:26:18;;;;;;;11.65;6.75;;;8.50;48.90;;;;;;5101550;27;20049;-81
2022/03/12 08:28:44;;;;;;;7.45;3.92;;;8.50;49.40;;;;;;5086972;27;20067;-81
2022/03/12 08:31:10;;;;;;;10.60;5.63;;;8.60;49.10;;;;;;5091587;27;20046;-81
2022/03/12 08:33:37;;;;;;;9.68;4.20;;;8.70;49.00;;;;;;5116165;27;20401;-81
2022/03/12 08:36:05;;;;;;;8.35;5.45;;;8.70;49.10;;;;;;5115346;27;20477;-81
2022/03/12 08:38:35;;;;;;;7.85;4.50;;;8.80;48.50;;;;;;5093082;27;20081;-80
2022/03/12 08:41:03;;;;;;;9.35;5.55;;;8.80;48.90;;;;;;5098909;27;20049;-81
2022/03/12 08:43:29;;;;;;;11.77;6.40;;;8.90;48.50;;;;;;5097160;27;20043;-80
2022/03/12 08:45:55;;;;;;;10.15;5.72;;;9.00;49.00;;;;;;5098667;27;20047;-80
2022/03/12 08:48:20;;;;;;;10.57;5.68;;;9.20;50.30;;;;;;5100419;27;20059;-80
2022/03/12 08:50:47;;;;;;;12.57;4.47;;;9.30;50.40;;;;;;5107732;27;20026;-81
2022/03/12 08:53:13;;;;;;;9.73;6.05;;;9.50;49.80;;;;;;5081367;27;20482;-81
2022/03/12 08:55:39;;;;;;;11.27;6.80;;;9.60;49.60;;;;;;5103967;27;20396;-80
2022/03/12 08:58:05;;;;;;;11.25;6.85;;;9.70;50.00;;;;;;5098615;27;20049;-80
2022/03/12 09:00:31;;;;;;;14.23;6.82;;;9.80;49.30;;;;;;5116084;27;20123;-80
2022/03/12 09:02:57;;;;;;;10.00;6.20;;;9.90;49.50;;;;;;5099983;27;20046;-80
2022/03/12 09:05:23;;;;;;;11.70;7.75;;;10.00;49.00;;;;;;5101674;27;20047;-81
2022/03/12 09:07:52;;;;;;;13.00;7.20;;;10.10;50.90;;;;;;5082461;27;20485;-81
2022/03/12 09:10:20;;;;;;;9.80;6.45;;;10.30;49.50;;;;;;5102880;27;20081;-81
2022/03/12 09:12:45;;;;;;;11.27;6.72;;;10.40;49.90;;;;;;5083126;27;20047;-81
2022/03/12 09:15:12;;;;;;;11.40;7.80;;;10.50;49.40;;;;;;5095830;27;20213;-80
2022/03/12 09:17:38;;;;;;;12.35;6.40;;;10.60;50.70;;;;;;5098168;27;20043;-80
2022/03/12 09:20:04;;;;;;;11.45;7.38;;;10.60;50.40;;;;;;5099265;27;20103;-80
2022/03/12 09:22:30;;;;;;;12.45;8.18;;;10.70;50.70;;;;;;5100928;27;20035;-79
2022/03/12 09:24:56;;;;;;;11.02;6.30;;;10.70;52.50;;;;;;5116223;27;20042;-80
2022/03/12 09:27:22;;;;;;;11.60;7.80;;;10.90;51.30;;;;;;5084008;27;20087;-80
2022/03/12 09:29:48;;;;;;;13.10;8.10;;;11.20;52.50;;;;;;5098416;27;20554;-80
2022/03/12 09:32:13;;;;;;;11.77;7.68;;;11.40;52.80;;;;;;5114856;27;20031;-81
2022/03/12 09:34:40;;;;;;;12.75;7.88;;;11.60;51.80;;;;;;5118052;27;20103;-81
2022/03/12 09:37:08;;;;;;;11.43;7.53;;;11.80;52.50;;;;;;5113144;27;20521;-81
2022/03/12 09:39:34;;;;;;;14.02;8.30;;;12.00;52.90;;;;;;5097885;27;20043;-81
2022/03/12 09:42:00;;;;;;;12.35;7.43;;;12.10;53.50;;;;;;5082610;27;20111;-81
2022/03/12 09:44:26;;;;;;;11.85;8.30;;;12.30;51.90;;;;;;5115093;27;20047;-81
2022/03/12 09:46:52;;;;;;;11.00;7.32;;;12.30;52.80;;;;;;5117245;27;20093;-81
2022/03/12 09:49:17;;;;;;;10.88;6.22;;;12.40;53.10;;;;;;5114218;27;20456;-81
2022/03/12 09:51:44;;;;;;;11.38;7.72;;;12.40;52.50;;;;;;5116757;27;20043;-81
2022/03/12 09:54:11;;;;;;;12.55;7.60;;;12.50;53.80;;;;;;5088953;27;20035;-81
2022/03/12 09:56:37;;;;;;;10.80;7.72;;;12.50;53.10;;;;;;5100184;27;20498;-80
2022/03/12 09:59:05;;;;;;;12.25;7.85;;;12.70;55.30;;;;;;5101739;27;20105;-81
2022/03/12 10:01:31;;;;;;;11.90;8.38;;;13.00;54.80;;;;;;5099351;27;20072;-81
2022/03/12 10:03:56;;;;;;;12.80;8.35;;;13.20;55.20;;;;;;5102207;27;20087;-80
2022/03/12 10:06:22;;;;;;;12.48;8.05;;;13.30;55.70;;;;;;5101431;27;20138;-80
2022/03/12 10:08:48;;;;;;;11.90;8.38;;;13.40;55.50;;;;;;5118185;27;20554;-80
2022/03/12 10:11:14;;;;;;;13.05;8.40;;;13.50;55.30;;;;;;5116012;27;20035;-80
2022/03/12 10:13:39;;;;;;;12.15;8.60;;;13.60;55.50;;;;;;5115474;27;20129;-81
2022/03/12 10:16:07;;;;;;;12.18;8.40;;;13.70;54.80;;;;;;5099475;27;20050;-81
2022/03/12 10:18:32;;;;;;;11.80;8.55;;;13.80;55.00;;;;;;5113882;27;20036;-81
2022/03/12 10:20:59;;;;;;;17.00;8.35;;;13.90;55.10;;;;;;5104098;27;20439;-81
2022/03/12 10:23:25;;;;;;;12.00;8.65;;;13.90;54.40;;;;;;5100614;27;20505;-81
2022/03/12 10:25:51;;;;;;;11.63;8.52;;;14.10;55.10;;;;;;5114253;27;20096;-81
2022/03/12 10:28:18;;;;;;;10.73;7.72;;;14.30;56.70;;;;;;5082973;27;20040;-81
2022/03/12 10:30:43;;;;;;;13.07;8.30;;;14.60;56.30;;;;;;5103699;27;20063;-81
2022/03/12 10:33:13;;;;;;;11.50;8.07;;;14.80;54.90;;;;;;5116185;27;20108;-81
2022/03/12 10:35:40;;;;;;;12.18;8.48;;;14.80;54.90;;;;;;5103544;27;20055;-80
2022/03/12 10:38:11;;;;;;;11.07;7.93;;;14.80;55.40;;;;;;5101947;27;20046;-80
2022/03/12 10:40:37;;;;;;;10.90;8.10;;;14.90;56.70;;;;;;5101415;27;20545;-80
2022/03/12 10:43:07;;;;;;;12.00;8.05;;;14.90;57.00;;;;;;5097684;27;20123;-80
2022/03/12 10:45:47;;;;;;;11.60;8.32;;;14.90;56.60;;;;;;5101061;27;20039;-81
2022/03/12 10:48:19;;;;;;;12.68;8.30;;;15.00;55.80;;;;;;5102585;27;20043;-79
2022/03/12 10:50:48;;;;;;;13.23;8.32;;;14.90;55.50;;;;;;5108949;27;20558;-79
2022/03/12 10:53:15;;;;;;;11.55;8.20;;;14.80;57.20;;;;;;5098959;27;20481;-79
2022/03/12 10:55:53;;;;;;;13.73;8.75;;;14.90;57.20;;;;;;5117675;27;20061;-80
2022/03/12 10:58:26;;;;;;;11.88;7.70;;;14.90;56.70;;;;;;5117312;27;20038;-80
2022/03/12 11:00:59;;;;;;;10.60;7.38;;;14.90;58.50;;;;;;5102408;27;20397;-80
2022/03/12 11:03:28;;;;;;;12.30;7.43;;;14.90;59.70;;;;;;5116977;27;20047;-80
2022/03/12 11:05:56;;;;;;;10.88;8.23;;;14.80;60.20;;;;;;5120223;27;20047;-80
2022/03/12 11:08:25;;;;;;;10.43;7.65;;;14.70;62.20;;;;;;5117758;27;20046;-79
2022/03/12 11:11:11;;;;;;;12.13;8.38;;;14.70;63.70;;;;;;5118254;27;20494;-80
2022/03/12 11:13:52;;;;;;;11.68;8.32;;;14.70;63.80;;;;;;5112086;27;20031;-81
2022/03/12 11:16:23;;;;;;;12.25;8.40;;;14.80;64.00;;;;;;5097234;27;20035;-81
2022/03/12 11:18:51;;;;;;;12.27;8.75;;;14.90;65.20;;;;;;5118989;27;20052;-80
2022/03/12 11:21:37;;;;;;;11.32;8.50;;;14.80;65.20;;;;;;5131159;27;20045;-81
2022/03/12 11:24:06;;;;;;;12.63;8.93;;;14.80;64.90;;;;;;5116846;27;20045;-81
2022/03/12 11:26:44;;;;;;;11.77;8.25;;;14.90;67.00;;;;;;5120351;27;20027;-81
2022/03/12 11:29:11;;;;;;;11.38;8.23;;;15.10;67.60;;;;;;5122034;27;20439;-81
2022/03/12 11:31:48;;;;;;;12.48;8.45;;;15.40;66.70;;;;;;5101968;27;20530;-81
2022/03/12 11:34:17;;;;;;;12.00;8.68;;;15.60;64.70;;;;;;5117252;27;20039;-81
2022/03/12 11:36:45;;;;;;;11.23;8.32;;;15.60;65.40;;;;;;5116493;27;20478;-81
2022/03/12 11:39:18;;;;;;;11.98;8.43;;;15.80;63.90;;;;;;5116814;27;20431;-83
2022/03/12 11:42:09;;;;;;;11.57;8.23;;;15.80;64.70;;;;;;5116920;27;20118;-80
2022/03/12 11:44:35;;;;;;;12.63;8.20;;;15.80;66.40;;;;;;5101509;27;20133;-80
2022/03/12 11:47:02;;;;;;;11.88;7.03;;;15.80;66.80;;;;;;5119197;27;20541;-80
2022/03/12 11:49:29;;;;;;;11.45;8.45;;;15.80;63.30;;;;;;5116922;27;20042;-80
2022/03/12 11:51:56;;;;;;;11.30;8.45;;;15.80;65.50;;;;;;5116189;27;20046;-80
2022/03/12 11:54:23;;;;;;;12.48;8.20;;;15.80;64.80;;;;;;5094559;27;20454;-80
2022/03/12 11:56:49;;;;;;;12.38;8.10;;;15.80;65.40;;;;;;5101450;27;20047;-80
2022/03/12 11:59:15;;;;;;;11.93;8.18;;;15.70;66.30;;;;;;5101809;27;20088;-80
2022/03/12 12:01:41;;;;;;;10.40;7.55;;;15.70;66.80;;;;;;5101447;27;20443;-81
2022/03/12 12:04:07;;;;;;;12.25;7.65;;;15.80;65.30;;;;;;5084889;27;20489;-83
2022/03/12 12:06:34;;;;;;;12.55;8.38;;;15.80;63.30;;;;;;5113690;27;20051;-80
2022/03/12 12:09:02;;;;;;;12.93;8.10;;;15.70;65.00;;;;;;5113134;28;20040;-80
2022/03/12 12:11:31;;;;;;;10.75;7.95;;;15.70;64.70;;;;;;5114292;27;20047;-80
2022/03/12 12:13:58;;;;;;;11.07;7.80;;;15.60;64.30;;;;;;5096355;28;20049;-80
2022/03/12 12:16:25;;;;;;;12.52;8.00;;;15.40;65.60;;;;;;5112786;28;20040;-80
2022/03/12 12:18:51;;;;;;;10.77;7.63;;;15.40;66.50;;;;;;5112691;28;20123;-80
2022/03/12 12:21:18;;;;;;;13.48;8.45;;;15.30;67.10;;;;;;5102854;27;20035;-80
2022/03/12 12:23:44;;;;;;;12.18;8.00;;;15.40;67.80;;;;;;5113793;27;20036;-80
2022/03/12 12:26:11;;;;;;;11.00;7.78;;;15.40;67.60;;;;;;5078752;28;20067;-80
2022/03/12 12:28:51;;;;;;;11.38;8.02;;;15.50;68.60;;;;;;5112722;28;20375;-80
2022/03/12 12:31:21;;;;;;;13.32;8.38;;;15.60;67.40;;;;;;5080217;28;20040;-80
2022/03/12 12:33:47;;;;;;;11.18;7.93;;;15.60;67.40;;;;;;5099955;27;20089;-80
2022/03/12 12:36:18;;;;;;;12.05;8.02;;;15.70;65.00;;;;;;5113855;27;20039;-80
2022/03/12 12:39:10;;;;;;;12.90;8.13;;;15.40;66.30;;;;;;5112995;27;20482;-81
2022/03/12 12:41:52;;;;;;;11.68;7.95;;;15.40;67.50;;;;;;5114159;27;20130;-80
2022/03/12 12:44:34;;;;;;;11.80;8.50;;;15.50;65.80;;;;;;5094921;28;20096;-80
2022/03/12 12:47:03;;;;;;;11.48;7.47;;;15.50;67.00;;;;;;5097840;28;20042;-80
2022/03/12 12:49:40;;;;;;;12.07;8.05;;;15.50;66.30;;;;;;5113469;27;20509;-80
2022/03/12 12:52:07;;;;;;;13.13;7.70;;;15.50;67.80;;;;;;5096528;28;20070;-80